sensor_id;sensor_type;location;lat;lon;timestamp;temperature;humidity
3190;DHT22;1606;51.946;10.558;2023-09-18T00:02:09;21.50;99.90
3190;DHT22;1606;51.946;10.558;2023-09-18T00:04:37;21.40;99.90
3190;DHT22;1606;51.946;10.558;2023-09-18T00:07:05;21.40;99.90
3190;DHT22;1606;51.946;10.558;2023-09-18T00:09:33;21.40;99.90
3190;DHT22;1606;51.946;10.558;2023-09-18T00:12:00;21.20;99.90
3190;DHT22;1606;51.946;10.558;2023-09-18T00:14:28;21.30;99.90
3190;DHT22;1606;51.946;10.558;2023-09-18T00:16:56;21.10;99.90
3190;DHT22;1606;51.946;10.558;2023-09-18T00:19:26;20.90;99.90
3190;DHT22;1606;51.946;10.558;2023-09-18T00:21:54;20.70;99.90
3190;DHT22;1606;51.946;10.558;2023-09-18T00:24:23;20.80;99.90
3190;DHT22;1606;51.946;10.558;2023-09-18T00:26:51;20.90;99.90
3190;DHT22;1606;51.946;10.558;2023-09-18T00:29:19;21.00;99.90
3190;DHT22;1606;51.946;10.558;2023-09-18T00:31:48;20.80;99.90
3190;DHT22;1606;51.946;10.558;2023-09-18T00:34:15;20.90;99.90
3190;DHT22;1606;51.946;10.558;2023-09-18T00:36:45;20.70;99.90
3190;DHT22;1606;51.946;10.558;2023-09-18T00:39:13;20.70;99.90
3190;DHT22;1606;51.946;10.558;2023-09-18T00:41:42;20.80;99.90
3190;DHT22;1606;51.946;10.558;2023-09-18T00:44:10;20.80;99.90
3190;DHT22;1606;51.946;10.558;2023-09-18T00:46:38;20.80;99.90
3190;DHT22;1606;51.946;10.558;2023-09-18T00:49:06;20.70;99.90
3190;DHT22;1606;51.946;10.558;2023-09-18T00:51:34;20.70;99.90
3190;DHT22;1606;51.946;10.558;2023-09-18T00:54:04;20.60;99.90
3190;DHT22;1606;51.946;10.558;2023-09-18T00:56:32;20.50;99.90
3190;DHT22;1606;51.946;10.558;2023-09-18T00:59:01;20.70;99.90
3190;DHT22;1606;51.946;10.558;2023-09-18T01:01:32;20.70;99.90
3190;DHT22;1606;51.946;10.558;2023-09-18T01:04:00;20.80;99.90
3190;DHT22;1606;51.946;10.558;2023-09-18T01:06:28;20.90;99.90
3190;DHT22;1606;51.946;10.558;2023-09-18T01:08:57;20.90;99.90
3190;DHT22;1606;51.946;10.558;2023-09-18T01:11:33;21.00;99.90
3190;DHT22;1606;51.946;10.558;2023-09-18T01:14:10;21.10;99.90
3190;DHT22;1606;51.946;10.558;2023-09-18T01:16:44;21.10;99.90
3190;DHT22;1606;51.946;10.558;2023-09-18T01:19:17;21.10;99.90
3190;DHT22;1606;51.946;10.558;2023-09-18T01:21:45;21.10;99.90
3190;DHT22;1606;51.946;10.558;2023-09-18T01:24:14;21.10;99.90
3190;DHT22;1606;51.946;10.558;2023-09-18T01:26:42;21.10;99.90
3190;DHT22;1606;51.946;10.558;2023-09-18T01:29:10;21.00;99.90
3190;DHT22;1606;51.946;10.558;2023-09-18T01:31:38;20.80;99.90
3190;DHT22;1606;51.946;10.558;2023-09-18T01:34:06;20.80;99.90
3190;DHT22;1606;51.946;10.558;2023-09-18T01:36:34;20.90;99.90
3190;DHT22;1606;51.946;10.558;2023-09-18T01:39:02;21.00;99.90
3190;DHT22;1606;51.946;10.558;2023-09-18T01:41:33;21.00;99.90
3190;DHT22;1606;51.946;10.558;2023-09-18T01:44:01;21.10;99.90
3190;DHT22;1606;51.946;10.558;2023-09-18T01:46:29;21.20;99.90
3190;DHT22;1606;51.946;10.558;2023-09-18T01:48:59;21.20;99.90
3190;DHT22;1606;51.946;10.558;2023-09-18T01:51:27;21.10;99.90
3190;DHT22;1606;51.946;10.558;2023-09-18T01:53:56;20.90;99.90
3190;DHT22;1606;51.946;10.558;2023-09-18T01:56:24;20.90;99.90
3190;DHT22;1606;51.946;10.558;2023-09-18T01:58:53;20.80;99.90
3190;DHT22;1606;51.946;10.558;2023-09-18T02:01:21;20.80;99.90
3190;DHT22;1606;51.946;10.558;2023-09-18T02:03:49;20.80;99.90
3190;DHT22;1606;51.946;10.558;2023-09-18T02:06:37;20.90;99.90
3190;DHT22;1606;51.946;10.558;2023-09-18T02:09:06;20.90;99.90
3190;DHT22;1606;51.946;10.558;2023-09-18T02:11:36;20.90;99.90
3190;DHT22;1606;51.946;10.558;2023-09-18T02:14:05;21.00;99.90
3190;DHT22;1606;51.946;10.558;2023-09-18T02:16:34;21.00;99.90
3190;DHT22;1606;51.946;10.558;2023-09-18T02:19:03;21.00;99.90
3190;DHT22;1606;51.946;10.558;2023-09-18T02:21:31;21.00;99.90
3190;DHT22;1606;51.946;10.558;2023-09-18T02:23:59;20.90;99.90
3190;DHT22;1606;51.946;10.558;2023-09-18T02:26:26;20.90;99.90
3190;DHT22;1606;51.946;10.558;2023-09-18T02:28:56;20.80;99.90
3190;DHT22;1606;51.946;10.558;2023-09-18T02:31:25;20.80;99.90
3190;DHT22;1606;51.946;10.558;2023-09-18T02:33:53;20.70;99.90
3190;DHT22;1606;51.946;10.558;2023-09-18T02:36:21;20.50;99.90
3190;DHT22;1606;51.946;10.558;2023-09-18T02:38:49;20.40;99.90
3190;DHT22;1606;51.946;10.558;2023-09-18T02:41:17;20.40;99.90
3190;DHT22;1606;51.946;10.558;2023-09-18T02:43:45;20.30;99.90
3190;DHT22;1606;51.946;10.558;2023-09-18T02:46:13;20.30;99.90
3190;DHT22;1606;51.946;10.558;2023-09-18T02:48:42;20.40;99.90
3190;DHT22;1606;51.946;10.558;2023-09-18T02:51:10;20.30;99.90
3190;DHT22;1606;51.946;10.558;2023-09-18T02:53:38;20.30;99.90
3190;DHT22;1606;51.946;10.558;2023-09-18T02:56:06;20.30;99.90
3190;DHT22;1606;51.946;10.558;2023-09-18T02:58:34;20.40;99.90
3190;DHT22;1606;51.946;10.558;2023-09-18T03:01:02;20.40;99.90
3190;DHT22;1606;51.946;10.558;2023-09-18T03:03:33;20.40;99.90
3190;DHT22;1606;51.946;10.558;2023-09-18T03:06:04;20.50;99.90
3190;DHT22;1606;51.946;10.558;2023-09-18T03:08:33;20.50;99.90
3190;DHT22;1606;51.946;10.558;2023-09-18T03:11:01;20.40;99.90
3190;DHT22;1606;51.946;10.558;2023-09-18T03:13:31;20.50;99.90
3190;DHT22;1606;51.946;10.558;2023-09-18T03:15:59;20.40;99.90
3190;DHT22;1606;51.946;10.558;2023-09-18T03:18:27;20.30;99.90
3190;DHT22;1606;51.946;10.558;2023-09-18T03:20:54;20.40;99.90
3190;DHT22;1606;51.946;10.558;2023-09-18T03:23:24;20.40;99.90
3190;DHT22;1606;51.946;10.558;2023-09-18T03:25:52;20.40;99.90
3190;DHT22;1606;51.946;10.558;2023-09-18T03:28:19;20.40;99.90
3190;DHT22;1606;51.946;10.558;2023-09-18T03:30:47;20.40;99.90
3190;DHT22;1606;51.946;10.558;2023-09-18T03:33:15;20.50;99.90
3190;DHT22;1606;51.946;10.558;2023-09-18T03:35:47;20.50;99.90
3190;DHT22;1606;51.946;10.558;2023-09-18T03:38:16;20.50;99.90
3190;DHT22;1606;51.946;10.558;2023-09-18T03:40:46;20.50;99.90
3190;DHT22;1606;51.946;10.558;2023-09-18T03:43:14;20.40;99.90
3190;DHT22;1606;51.946;10.558;2023-09-18T03:45:42;20.20;99.90
3190;DHT22;1606;51.946;10.558;2023-09-18T03:48:10;20.20;99.90
3190;DHT22;1606;51.946;10.558;2023-09-18T03:50:38;20.10;99.90
3190;DHT22;1606;51.946;10.558;2023-09-18T03:53:07;20.20;99.90
3190;DHT22;1606;51.946;10.558;2023-09-18T03:55:35;20.20;99.90
3190;DHT22;1606;51.946;10.558;2023-09-18T03:58:06;20.30;99.90
3190;DHT22;1606;51.946;10.558;2023-09-18T04:00:34;20.30;99.90
3190;DHT22;1606;51.946;10.558;2023-09-18T04:03:03;20.30;99.90
3190;DHT22;1606;51.946;10.558;2023-09-18T04:05:31;20.20;99.90
3190;DHT22;1606;51.946;10.558;2023-09-18T04:07:59;20.00;99.90
3190;DHT22;1606;51.946;10.558;2023-09-18T04:10:26;20.10;99.90
3190;DHT22;1606;51.946;10.558;2023-09-18T04:12:55;19.90;99.90
3190;DHT22;1606;51.946;10.558;2023-09-18T04:15:24;19.80;99.90
3190;DHT22;1606;51.946;10.558;2023-09-18T04:17:52;19.70;99.90
3190;DHT22;1606;51.946;10.558;2023-09-18T04:20:20;19.70;99.90
3190;DHT22;1606;51.946;10.558;2023-09-18T04:23:19;19.80;99.90
3190;DHT22;1606;51.946;10.558;2023-09-18T04:25:49;19.90;99.90
3190;DHT22;1606;51.946;10.558;2023-09-18T04:28:18;19.90;99.90
3190;DHT22;1606;51.946;10.558;2023-09-18T04:30:47;19.90;99.90
3190;DHT22;1606;51.946;10.558;2023-09-18T04:33:16;19.90;99.90
3190;DHT22;1606;51.946;10.558;2023-09-18T04:35:45;19.90;99.90
3190;DHT22;1606;51.946;10.558;2023-09-18T04:38:13;19.90;99.90
3190;DHT22;1606;51.946;10.558;2023-09-18T04:40:42;20.00;99.90
3190;DHT22;1606;51.946;10.558;2023-09-18T04:43:10;20.00;99.90
3190;DHT22;1606;51.946;10.558;2023-09-18T04:45:38;20.00;99.90
3190;DHT22;1606;51.946;10.558;2023-09-18T04:48:07;20.00;99.90
3190;DHT22;1606;51.946;10.558;2023-09-18T04:50:35;20.00;99.90
3190;DHT22;1606;51.946;10.558;2023-09-18T04:53:03;20.00;99.90
3190;DHT22;1606;51.946;10.558;2023-09-18T04:55:31;20.00;99.90
3190;DHT22;1606;51.946;10.558;2023-09-18T04:57:59;19.80;99.90
3190;DHT22;1606;51.946;10.558;2023-09-18T05:00:27;19.90;99.90
3190;DHT22;1606;51.946;10.558;2023-09-18T05:02:56;19.90;99.90
3190;DHT22;1606;51.946;10.558;2023-09-18T05:05:26;19.90;99.90
3190;DHT22;1606;51.946;10.558;2023-09-18T05:07:54;20.00;99.90
3190;DHT22;1606;51.946;10.558;2023-09-18T05:10:22;20.00;99.90
3190;DHT22;1606;51.946;10.558;2023-09-18T05:12:50;20.00;99.90
3190;DHT22;1606;51.946;10.558;2023-09-18T05:15:25;20.00;99.90
3190;DHT22;1606;51.946;10.558;2023-09-18T05:17:57;20.10;99.90
3190;DHT22;1606;51.946;10.558;2023-09-18T05:20:28;20.10;99.90
3190;DHT22;1606;51.946;10.558;2023-09-18T05:22:58;20.20;99.90
3190;DHT22;1606;51.946;10.558;2023-09-18T05:25:27;20.20;99.90
3190;DHT22;1606;51.946;10.558;2023-09-18T05:28:00;20.20;99.90
3190;DHT22;1606;51.946;10.558;2023-09-18T05:30:30;20.20;99.90
3190;DHT22;1606;51.946;10.558;2023-09-18T05:33:02;20.20;99.90
3190;DHT22;1606;51.946;10.558;2023-09-18T05:35:34;20.10;99.90
3190;DHT22;1606;51.946;10.558;2023-09-18T05:38:03;20.00;99.90
3190;DHT22;1606;51.946;10.558;2023-09-18T05:40:32;19.90;99.90
3190;DHT22;1606;51.946;10.558;2023-09-18T05:43:00;19.90;99.90
3190;DHT22;1606;51.946;10.558;2023-09-18T05:45:28;19.90;99.90
3190;DHT22;1606;51.946;10.558;2023-09-18T05:47:57;19.80;99.90
3190;DHT22;1606;51.946;10.558;2023-09-18T05:50:33;19.80;99.90
3190;DHT22;1606;51.946;10.558;2023-09-18T05:53:02;19.90;99.90
3190;DHT22;1606;51.946;10.558;2023-09-18T05:55:32;19.80;99.90
3190;DHT22;1606;51.946;10.558;2023-09-18T05:58:00;19.90;99.90
3190;DHT22;1606;51.946;10.558;2023-09-18T06:00:31;19.90;99.90
3190;DHT22;1606;51.946;10.558;2023-09-18T06:02:59;20.30;99.90
3190;DHT22;1606;51.946;10.558;2023-09-18T06:05:28;20.60;99.90
3190;DHT22;1606;51.946;10.558;2023-09-18T06:08:00;21.00;99.90
3190;DHT22;1606;51.946;10.558;2023-09-18T06:10:28;21.60;99.90
3190;DHT22;1606;51.946;10.558;2023-09-18T06:12:58;22.00;99.90
3190;DHT22;1606;51.946;10.558;2023-09-18T06:15:31;22.40;99.90
3190;DHT22;1606;51.946;10.558;2023-09-18T06:17:58;22.90;99.90
3190;DHT22;1606;51.946;10.558;2023-09-18T06:20:27;23.20;99.90
3190;DHT22;1606;51.946;10.558;2023-09-18T06:22:54;23.40;99.90
3190;DHT22;1606;51.946;10.558;2023-09-18T06:25:24;23.70;99.90
3190;DHT22;1606;51.946;10.558;2023-09-18T06:27:52;23.90;99.90
3190;DHT22;1606;51.946;10.558;2023-09-18T06:30:20;24.20;99.90
3190;DHT22;1606;51.946;10.558;2023-09-18T06:32:48;24.30;99.90
3190;DHT22;1606;51.946;10.558;2023-09-18T06:35:16;24.40;99.90
3190;DHT22;1606;51.946;10.558;2023-09-18T06:37:44;24.50;99.90
3190;DHT22;1606;51.946;10.558;2023-09-18T06:40:12;24.50;99.90
3190;DHT22;1606;51.946;10.558;2023-09-18T06:42:41;24.70;99.90
3190;DHT22;1606;51.946;10.558;2023-09-18T06:45:09;24.70;99.90
3190;DHT22;1606;51.946;10.558;2023-09-18T06:47:37;24.70;99.90
3190;DHT22;1606;51.946;10.558;2023-09-18T06:50:08;24.80;99.90
3190;DHT22;1606;51.946;10.558;2023-09-18T06:52:38;24.80;99.90
3190;DHT22;1606;51.946;10.558;2023-09-18T06:55:08;24.80;99.90
3190;DHT22;1606;51.946;10.558;2023-09-18T06:57:36;24.80;99.90
3190;DHT22;1606;51.946;10.558;2023-09-18T07:00:06;24.60;99.90
3190;DHT22;1606;51.946;10.558;2023-09-18T07:02:34;24.60;99.90
3190;DHT22;1606;51.946;10.558;2023-09-18T07:05:03;24.60;99.90
3190;DHT22;1606;51.946;10.558;2023-09-18T07:07:32;24.70;99.90
3190;DHT22;1606;51.946;10.558;2023-09-18T07:10:00;24.70;99.90
3190;DHT22;1606;51.946;10.558;2023-09-18T07:12:31;24.60;99.90
3190;DHT22;1606;51.946;10.558;2023-09-18T07:15:01;24.60;99.90
3190;DHT22;1606;51.946;10.558;2023-09-18T07:17:32;24.50;99.90
3190;DHT22;1606;51.946;10.558;2023-09-18T07:20:02;24.50;99.90
3190;DHT22;1606;51.946;10.558;2023-09-18T07:22:36;24.50;99.90
3190;DHT22;1606;51.946;10.558;2023-09-18T07:25:05;24.40;99.90
3190;DHT22;1606;51.946;10.558;2023-09-18T07:27:33;24.40;99.90
3190;DHT22;1606;51.946;10.558;2023-09-18T07:30:04;24.40;99.90
3190;DHT22;1606;51.946;10.558;2023-09-18T07:32:33;24.40;99.90
3190;DHT22;1606;51.946;10.558;2023-09-18T07:35:06;24.40;99.90
3190;DHT22;1606;51.946;10.558;2023-09-18T07:37:34;24.40;99.90
3190;DHT22;1606;51.946;10.558;2023-09-18T07:40:03;24.50;99.90
3190;DHT22;1606;51.946;10.558;2023-09-18T07:42:31;24.40;99.90
3190;DHT22;1606;51.946;10.558;2023-09-18T07:44:59;24.50;99.90
3190;DHT22;1606;51.946;10.558;2023-09-18T07:47:27;24.40;99.90
3190;DHT22;1606;51.946;10.558;2023-09-18T07:49:57;24.40;99.90
3190;DHT22;1606;51.946;10.558;2023-09-18T07:52:25;24.30;99.90
3190;DHT22;1606;51.946;10.558;2023-09-18T07:54:52;24.40;99.90
3190;DHT22;1606;51.946;10.558;2023-09-18T07:57:20;24.50;99.90
3190;DHT22;1606;51.946;10.558;2023-09-18T07:59:49;24.50;99.90
3190;DHT22;1606;51.946;10.558;2023-09-18T08:02:17;24.70;99.90
3190;DHT22;1606;51.946;10.558;2023-09-18T08:04:46;24.80;99.90
3190;DHT22;1606;51.946;10.558;2023-09-18T08:07:15;25.00;99.90
3190;DHT22;1606;51.946;10.558;2023-09-18T08:09:43;25.20;99.90
3190;DHT22;1606;51.946;10.558;2023-09-18T08:12:14;25.10;99.90
3190;DHT22;1606;51.946;10.558;2023-09-18T08:14:42;25.50;99.90
3190;DHT22;1606;51.946;10.558;2023-09-18T08:17:10;25.60;99.90
3190;DHT22;1606;51.946;10.558;2023-09-18T08:19:39;25.50;99.90
3190;DHT22;1606;51.946;10.558;2023-09-18T08:22:08;25.80;99.90
3190;DHT22;1606;51.946;10.558;2023-09-18T08:24:40;25.80;99.90
3190;DHT22;1606;51.946;10.558;2023-09-18T08:27:10;25.90;99.90
3190;DHT22;1606;51.946;10.558;2023-09-18T08:29:38;25.70;99.60
3190;DHT22;1606;51.946;10.558;2023-09-18T08:32:06;25.40;99.90
3190;DHT22;1606;51.946;10.558;2023-09-18T08:34:34;25.70;99.90
3190;DHT22;1606;51.946;10.558;2023-09-18T08:37:02;25.80;99.50
3190;DHT22;1606;51.946;10.558;2023-09-18T08:39:30;25.90;99.90
3190;DHT22;1606;51.946;10.558;2023-09-18T08:42:04;25.90;99.90
3190;DHT22;1606;51.946;10.558;2023-09-18T08:44:32;25.80;99.70
3190;DHT22;1606;51.946;10.558;2023-09-18T08:47:00;25.80;99.70
3190;DHT22;1606;51.946;10.558;2023-09-18T08:49:29;26.00;99.30
3190;DHT22;1606;51.946;10.558;2023-09-18T08:51:59;26.20;99.00
3190;DHT22;1606;51.946;10.558;2023-09-18T08:54:27;26.10;99.90
3190;DHT22;1606;51.946;10.558;2023-09-18T08:56:56;26.00;99.10
3190;DHT22;1606;51.946;10.558;2023-09-18T08:59:25;26.00;99.00
3190;DHT22;1606;51.946;10.558;2023-09-18T09:01:55;26.10;99.70
3190;DHT22;1606;51.946;10.558;2023-09-18T09:04:23;26.10;99.50
3190;DHT22;1606;51.946;10.558;2023-09-18T09:06:51;26.10;99.10
3190;DHT22;1606;51.946;10.558;2023-09-18T09:09:19;26.20;98.90
3190;DHT22;1606;51.946;10.558;2023-09-18T09:11:51;26.20;98.80
3190;DHT22;1606;51.946;10.558;2023-09-18T09:14:19;26.20;99.00
3190;DHT22;1606;51.946;10.558;2023-09-18T09:16:51;26.00;99.00
3190;DHT22;1606;51.946;10.558;2023-09-18T09:19:28;26.10;99.00
3190;DHT22;1606;51.946;10.558;2023-09-18T09:21:56;26.00;98.80
3190;DHT22;1606;51.946;10.558;2023-09-18T09:24:41;25.90;98.50
3190;DHT22;1606;51.946;10.558;2023-09-18T09:27:09;26.00;98.60
3190;DHT22;1606;51.946;10.558;2023-09-18T09:29:37;26.00;98.20
3190;DHT22;1606;51.946;10.558;2023-09-18T09:32:17;26.00;98.20
3190;DHT22;1606;51.946;10.558;2023-09-18T09:34:46;25.90;98.70
3190;DHT22;1606;51.946;10.558;2023-09-18T09:37:15;25.80;98.30
3190;DHT22;1606;51.946;10.558;2023-09-18T09:39:48;25.70;98.20
3190;DHT22;1606;51.946;10.558;2023-09-18T09:42:18;25.80;98.10
3190;DHT22;1606;51.946;10.558;2023-09-18T09:45:02;25.90;98.10
3190;DHT22;1606;51.946;10.558;2023-09-18T09:47:34;26.00;98.40
3190;DHT22;1606;51.946;10.558;2023-09-18T09:50:09;25.80;97.90
3190;DHT22;1606;51.946;10.558;2023-09-18T09:52:42;25.60;98.50
3190;DHT22;1606;51.946;10.558;2023-09-18T09:55:22;25.60;98.80
3190;DHT22;1606;51.946;10.558;2023-09-18T09:57:52;25.60;98.50
3190;DHT22;1606;51.946;10.558;2023-09-18T10:00:20;25.60;98.50
3190;DHT22;1606;51.946;10.558;2023-09-18T10:02:58;25.50;99.00
3190;DHT22;1606;51.946;10.558;2023-09-18T10:05:29;25.70;98.90
3190;DHT22;1606;51.946;10.558;2023-09-18T10:07:59;25.50;98.80
3190;DHT22;1606;51.946;10.558;2023-09-18T10:10:33;25.70;99.00
3190;DHT22;1606;51.946;10.558;2023-09-18T10:13:09;25.80;99.20
3190;DHT22;1606;51.946;10.558;2023-09-18T10:15:38;25.60;99.20
3190;DHT22;1606;51.946;10.558;2023-09-18T10:18:28;25.70;99.20
3190;DHT22;1606;51.946;10.558;2023-09-18T10:21:04;25.80;99.30
3190;DHT22;1606;51.946;10.558;2023-09-18T10:23:46;25.70;99.50
3190;DHT22;1606;51.946;10.558;2023-09-18T10:26:23;25.60;99.70
3190;DHT22;1606;51.946;10.558;2023-09-18T10:28:53;25.50;99.90
3190;DHT22;1606;51.946;10.558;2023-09-18T10:31:26;25.60;99.90
3190;DHT22;1606;51.946;10.558;2023-09-18T10:33:57;25.60;99.90
3190;DHT22;1606;51.946;10.558;2023-09-18T10:36:26;25.80;99.90
3190;DHT22;1606;51.946;10.558;2023-09-18T10:39:00;25.70;99.90
3190;DHT22;1606;51.946;10.558;2023-09-18T10:41:29;25.80;99.90
3190;DHT22;1606;51.946;10.558;2023-09-18T10:43:58;25.80;99.90
3190;DHT22;1606;51.946;10.558;2023-09-18T10:46:27;25.70;99.70
3190;DHT22;1606;51.946;10.558;2023-09-18T10:48:57;25.70;99.80
3190;DHT22;1606;51.946;10.558;2023-09-18T10:51:26;25.30;99.80
3190;DHT22;1606;51.946;10.558;2023-09-18T10:53:56;25.20;99.90
3190;DHT22;1606;51.946;10.558;2023-09-18T10:56:25;25.20;99.90
3190;DHT22;1606;51.946;10.558;2023-09-18T10:58:57;25.10;99.90
3190;DHT22;1606;51.946;10.558;2023-09-18T11:01:27;25.20;99.90
3190;DHT22;1606;51.946;10.558;2023-09-18T11:04:00;25.40;99.90
3190;DHT22;1606;51.946;10.558;2023-09-18T11:06:29;25.40;99.90
3190;DHT22;1606;51.946;10.558;2023-09-18T11:09:02;25.20;99.90
3190;DHT22;1606;51.946;10.558;2023-09-18T11:11:31;25.20;99.90
3190;DHT22;1606;51.946;10.558;2023-09-18T11:14:02;25.10;99.90
3190;DHT22;1606;51.946;10.558;2023-09-18T11:16:35;25.10;99.90
3190;DHT22;1606;51.946;10.558;2023-09-18T11:19:11;24.90;99.90
3190;DHT22;1606;51.946;10.558;2023-09-18T11:21:40;25.00;99.90
3190;DHT22;1606;51.946;10.558;2023-09-18T11:24:16;25.30;99.90
3190;DHT22;1606;51.946;10.558;2023-09-18T11:26:45;25.40;99.90
3190;DHT22;1606;51.946;10.558;2023-09-18T11:29:15;25.30;99.90
3190;DHT22;1606;51.946;10.558;2023-09-18T11:31:47;25.40;99.90
3190;DHT22;1606;51.946;10.558;2023-09-18T11:34:21;25.40;99.90
3190;DHT22;1606;51.946;10.558;2023-09-18T11:36:50;25.20;99.90
3190;DHT22;1606;51.946;10.558;2023-09-18T11:39:34;25.10;99.90
3190;DHT22;1606;51.946;10.558;2023-09-18T11:42:08;25.30;99.90
3190;DHT22;1606;51.946;10.558;2023-09-18T11:44:37;25.20;99.90
3190;DHT22;1606;51.946;10.558;2023-09-18T11:47:10;25.10;99.90
3190;DHT22;1606;51.946;10.558;2023-09-18T11:49:51;24.70;99.90
3190;DHT22;1606;51.946;10.558;2023-09-18T11:52:22;24.60;99.90
3190;DHT22;1606;51.946;10.558;2023-09-18T11:54:51;24.80;99.90
3190;DHT22;1606;51.946;10.558;2023-09-18T11:57:19;24.80;99.90
3190;DHT22;1606;51.946;10.558;2023-09-18T11:59:47;24.70;99.90
3190;DHT22;1606;51.946;10.558;2023-09-18T12:02:25;24.60;99.90
3190;DHT22;1606;51.946;10.558;2023-09-18T12:04:56;24.80;99.90
3190;DHT22;1606;51.946;10.558;2023-09-18T12:07:24;24.80;99.90
3190;DHT22;1606;51.946;10.558;2023-09-18T12:09:52;25.00;99.90
3190;DHT22;1606;51.946;10.558;2023-09-18T12:12:22;25.00;99.90
3190;DHT22;1606;51.946;10.558;2023-09-18T12:14:52;25.00;99.90
3190;DHT22;1606;51.946;10.558;2023-09-18T12:17:20;25.00;99.90
3190;DHT22;1606;51.946;10.558;2023-09-18T12:19:52;24.80;99.90
3190;DHT22;1606;51.946;10.558;2023-09-18T12:22:25;25.00;99.90
3190;DHT22;1606;51.946;10.558;2023-09-18T12:25:07;25.00;99.90
3190;DHT22;1606;51.946;10.558;2023-09-18T12:27:40;25.10;99.90
3190;DHT22;1606;51.946;10.558;2023-09-18T12:30:09;25.20;99.90
3190;DHT22;1606;51.946;10.558;2023-09-18T12:32:39;25.10;99.90
3190;DHT22;1606;51.946;10.558;2023-09-18T12:35:07;25.10;99.90
3190;DHT22;1606;51.946;10.558;2023-09-18T12:37:40;25.20;99.90
3190;DHT22;1606;51.946;10.558;2023-09-18T12:40:21;25.40;99.90
3190;DHT22;1606;51.946;10.558;2023-09-18T12:42:50;25.50;99.90
3190;DHT22;1606;51.946;10.558;2023-09-18T12:45:18;25.60;99.90
3190;DHT22;1606;51.946;10.558;2023-09-18T12:47:47;25.30;99.90
3190;DHT22;1606;51.946;10.558;2023-09-18T12:50:15;25.40;99.90
3190;DHT22;1606;51.946;10.558;2023-09-18T12:52:44;25.30;99.90
3190;DHT22;1606;51.946;10.558;2023-09-18T12:55:22;25.50;99.90
3190;DHT22;1606;51.946;10.558;2023-09-18T12:57:51;25.40;99.90
3190;DHT22;1606;51.946;10.558;2023-09-18T13:00:21;25.30;99.90
3190;DHT22;1606;51.946;10.558;2023-09-18T13:02:50;25.30;99.90
3190;DHT22;1606;51.946;10.558;2023-09-18T13:05:22;25.40;99.90
3190;DHT22;1606;51.946;10.558;2023-09-18T13:07:54;25.60;99.70
3190;DHT22;1606;51.946;10.558;2023-09-18T13:10:23;25.70;99.90
3190;DHT22;1606;51.946;10.558;2023-09-18T13:12:55;25.90;99.50
3190;DHT22;1606;51.946;10.558;2023-09-18T13:15:25;25.80;99.60
3190;DHT22;1606;51.946;10.558;2023-09-18T13:17:54;25.90;99.40
3190;DHT22;1606;51.946;10.558;2023-09-18T13:20:24;26.00;99.20
3190;DHT22;1606;51.946;10.558;2023-09-18T13:22:56;26.10;98.80
3190;DHT22;1606;51.946;10.558;2023-09-18T13:25:26;25.70;99.20
3190;DHT22;1606;51.946;10.558;2023-09-18T13:27:55;25.60;99.50
3190;DHT22;1606;51.946;10.558;2023-09-18T13:30:23;25.80;99.40
3190;DHT22;1606;51.946;10.558;2023-09-18T13:33:01;25.80;99.40
3190;DHT22;1606;51.946;10.558;2023-09-18T13:35:30;25.90;99.30
3190;DHT22;1606;51.946;10.558;2023-09-18T13:37:59;25.60;99.30
3190;DHT22;1606;51.946;10.558;2023-09-18T13:40:27;25.70;99.40
3190;DHT22;1606;51.946;10.558;2023-09-18T13:42:57;25.90;99.40
3190;DHT22;1606;51.946;10.558;2023-09-18T13:45:25;25.90;99.30
3190;DHT22;1606;51.946;10.558;2023-09-18T13:47:52;25.70;99.60
3190;DHT22;1606;51.946;10.558;2023-09-18T13:50:21;25.80;99.20
3190;DHT22;1606;51.946;10.558;2023-09-18T13:52:49;25.80;99.60
3190;DHT22;1606;51.946;10.558;2023-09-18T13:55:18;25.80;99.60
3190;DHT22;1606;51.946;10.558;2023-09-18T13:57:47;25.80;99.80
3190;DHT22;1606;51.946;10.558;2023-09-18T14:00:16;25.90;99.60
3190;DHT22;1606;51.946;10.558;2023-09-18T14:02:44;25.90;99.20
3190;DHT22;1606;51.946;10.558;2023-09-18T14:05:12;25.90;98.80
3190;DHT22;1606;51.946;10.558;2023-09-18T14:07:44;25.70;98.50
3190;DHT22;1606;51.946;10.558;2023-09-18T14:10:12;25.70;99.20
3190;DHT22;1606;51.946;10.558;2023-09-18T14:12:41;25.80;99.20
3190;DHT22;1606;51.946;10.558;2023-09-18T14:15:10;25.90;99.00
3190;DHT22;1606;51.946;10.558;2023-09-18T14:17:39;26.00;98.90
3190;DHT22;1606;51.946;10.558;2023-09-18T14:20:07;25.80;98.80
3190;DHT22;1606;51.946;10.558;2023-09-18T14:22:39;25.70;99.20
3190;DHT22;1606;51.946;10.558;2023-09-18T14:25:08;25.60;99.20
3190;DHT22;1606;51.946;10.558;2023-09-18T14:27:35;25.50;99.70
3190;DHT22;1606;51.946;10.558;2023-09-18T14:30:06;25.60;99.90
3190;DHT22;1606;51.946;10.558;2023-09-18T14:32:38;25.80;99.80
3190;DHT22;1606;51.946;10.558;2023-09-18T14:35:06;25.60;99.90
3190;DHT22;1606;51.946;10.558;2023-09-18T14:37:36;25.70;99.90
3190;DHT22;1606;51.946;10.558;2023-09-18T14:40:05;25.70;99.90
3190;DHT22;1606;51.946;10.558;2023-09-18T14:42:36;25.60;99.90
3190;DHT22;1606;51.946;10.558;2023-09-18T14:45:06;25.30;99.90
3190;DHT22;1606;51.946;10.558;2023-09-18T14:47:34;25.30;99.90
3190;DHT22;1606;51.946;10.558;2023-09-18T14:50:02;25.20;99.90
3190;DHT22;1606;51.946;10.558;2023-09-18T14:52:31;25.20;99.90
3190;DHT22;1606;51.946;10.558;2023-09-18T14:55:00;25.30;99.90
3190;DHT22;1606;51.946;10.558;2023-09-18T14:57:28;25.30;99.90
3190;DHT22;1606;51.946;10.558;2023-09-18T14:59:56;25.20;99.90
3190;DHT22;1606;51.946;10.558;2023-09-18T15:02:25;24.90;99.90
3190;DHT22;1606;51.946;10.558;2023-09-18T15:04:57;24.80;99.90
3190;DHT22;1606;51.946;10.558;2023-09-18T15:07:25;24.90;99.90
3190;DHT22;1606;51.946;10.558;2023-09-18T15:09:53;25.00;99.90
3190;DHT22;1606;51.946;10.558;2023-09-18T15:12:21;25.20;99.90
3190;DHT22;1606;51.946;10.558;2023-09-18T15:14:50;25.40;99.90
3190;DHT22;1606;51.946;10.558;2023-09-18T15:17:18;25.40;99.70
3190;DHT22;1606;51.946;10.558;2023-09-18T15:19:47;25.40;99.50
3190;DHT22;1606;51.946;10.558;2023-09-18T15:22:20;25.40;99.70
3190;DHT22;1606;51.946;10.558;2023-09-18T15:24:49;25.30;99.60
3190;DHT22;1606;51.946;10.558;2023-09-18T15:27:17;25.20;99.30
3190;DHT22;1606;51.946;10.558;2023-09-18T15:30:05;25.00;99.70
3190;DHT22;1606;51.946;10.558;2023-09-18T15:32:46;25.10;99.70
3190;DHT22;1606;51.946;10.558;2023-09-18T15:35:18;25.00;99.50
3190;DHT22;1606;51.946;10.558;2023-09-18T15:37:49;24.80;99.90
3190;DHT22;1606;51.946;10.558;2023-09-18T15:40:18;25.00;99.90
3190;DHT22;1606;51.946;10.558;2023-09-18T15:42:49;25.10;99.90
3190;DHT22;1606;51.946;10.558;2023-09-18T15:45:17;25.30;99.80
3190;DHT22;1606;51.946;10.558;2023-09-18T15:47:45;25.20;99.60
3190;DHT22;1606;51.946;10.558;2023-09-18T15:50:13;25.20;99.70
3190;DHT22;1606;51.946;10.558;2023-09-18T15:52:42;25.20;99.70
3190;DHT22;1606;51.946;10.558;2023-09-18T15:55:10;25.00;99.60
3190;DHT22;1606;51.946;10.558;2023-09-18T15:57:38;25.00;99.90
3190;DHT22;1606;51.946;10.558;2023-09-18T16:00:08;25.10;99.60
3190;DHT22;1606;51.946;10.558;2023-09-18T16:02:36;24.90;99.90